Time;durP1;ratioP1;P1;durP2;ratioP2;P2;SDS_P1;SDS_P2;PMS_P1;PMS_P2;Temp;Humidity;BMP_temperature;BMP_pressure;BME280_temperature;BME280_humidity;BME280_pressure;Samples;Min_cycle;Max_cycle;Signal;HPM_P1;HPM_P2
2021/03/17 00:01:26;;;;;;;12.20;10.90;;;3.60;1.00;;;;;;4875553;28;20771;-78
2021/03/17 00:04:07;;;;;;;12.60;11.23;;;3.60;1.00;;;;;;4884921;28;20795;-80
2021/03/17 00:06:48;;;;;;;10.97;9.87;;;3.60;1.00;;;;;;4858942;28;20190;-80
2021/03/17 00:09:29;;;;;;;11.63;10.50;;;3.60;1.00;;;;;;4857141;28;20190;-82
2021/03/17 00:12:10;;;;;;;10.57;9.40;;;3.60;1.00;;;;;;4860823;28;20197;-84
2021/03/17 00:14:51;;;;;;;11.20;10.10;;;3.60;1.00;;;;;;4847761;28;20224;-80
2021/03/17 00:17:33;;;;;;;10.90;9.80;;;3.60;1.00;;;;;;4875725;28;20181;-81
2021/03/17 00:20:14;;;;;;;12.37;10.63;;;3.60;1.00;;;;;;4859763;28;20174;-81
2021/03/17 00:22:56;;;;;;;11.67;10.40;;;3.60;1.00;;;;;;4860965;28;20178;-83
2021/03/17 00:25:38;;;;;;;12.73;11.43;;;3.50;1.00;;;;;;4883739;28;20226;-82
2021/03/17 00:28:19;;;;;;;12.90;11.53;;;3.50;1.00;;;;;;4877141;28;20616;-79
2021/03/17 00:31:00;;;;;;;13.57;11.90;;;3.50;1.00;;;;;;4871788;28;20194;-83
2021/03/17 00:33:41;;;;;;;12.80;11.47;;;3.50;1.00;;;;;;4879346;28;20262;-81
2021/03/17 00:36:22;;;;;;;12.67;11.37;;;3.50;1.00;;;;;;4897055;28;20254;-80
2021/03/17 00:39:03;;;;;;;12.20;10.90;;;3.50;1.00;;;;;;4885443;28;20185;-75
2021/03/17 00:41:43;;;;;;;12.43;11.13;;;3.60;1.00;;;;;;4879373;28;20181;-83
2021/03/17 00:44:24;;;;;;;11.33;10.17;;;3.60;1.00;;;;;;4871951;28;20185;-82
2021/03/17 00:47:04;;;;;;;13.40;11.60;;;3.60;1.00;;;;;;4897383;28;20177;-83
2021/03/17 00:49:29;;;;;;;12.47;11.17;;;3.50;1.00;;;;;;4886810;28;20238;-88
2021/03/17 00:51:53;;;;;;;12.70;11.37;;;3.50;1.00;;;;;;4860965;28;20683;-82
2021/03/17 00:54:34;;;;;;;12.33;10.33;;;3.50;1.00;;;;;;4881906;28;20174;-80
2021/03/17 00:57:13;;;;;;;11.57;10.37;;;3.50;1.00;;;;;;4895997;28;20215;-84
2021/03/17 00:59:36;;;;;;;12.97;10.53;;;3.50;1.00;;;;;;4896527;28;20557;-84
2021/03/17 01:01:58;;;;;;;12.20;10.60;;;3.50;1.00;;;;;;4865797;28;20218;-83
2021/03/17 01:04:20;;;;;;;11.77;10.53;;;3.50;1.00;;;;;;4870584;28;20249;-85
2021/03/17 01:06:43;;;;;;;12.97;11.07;;;3.50;1.00;;;;;;4888844;28;20659;-83
2021/03/17 01:09:06;;;;;;;12.53;11.23;;;3.50;1.00;;;;;;4844611;28;20566;-83
2021/03/17 01:11:28;;;;;;;12.47;11.17;;;3.50;1.00;;;;;;4884455;28;20583;-86
2021/03/17 01:13:51;;;;;;;12.50;10.50;;;3.60;1.00;;;;;;4894509;28;20866;-87
2021/03/17 01:16:13;;;;;;;12.70;10.73;;;3.50;1.00;;;;;;4859996;28;20202;-84
2021/03/17 01:18:35;;;;;;;11.97;10.80;;;3.50;1.00;;;;;;4865586;28;20202;-82
2021/03/17 01:20:57;;;;;;;11.43;10.33;;;3.60;1.00;;;;;;4870288;28;20718;-84
2021/03/17 01:23:20;;;;;;;12.27;10.97;;;3.50;1.00;;;;;;4855749;28;20258;-83
2021/03/17 01:25:46;;;;;;;11.90;10.70;;;3.50;1.00;;;;;;4877537;28;21060;-85
2021/03/17 01:28:10;;;;;;;11.77;10.47;;;3.50;1.00;;;;;;4878911;28;20219;-83
2021/03/17 01:30:35;;;;;;;12.73;11.37;;;3.50;1.00;;;;;;4878943;28;20227;-86
2021/03/17 01:32:57;;;;;;;11.70;10.50;;;3.50;1.00;;;;;;4855321;28;20775;-88
2021/03/17 01:35:20;;;;;;;11.73;10.53;;;3.50;1.00;;;;;;4895323;28;20196;-82
2021/03/17 01:37:42;;;;;;;10.63;9.63;;;3.50;1.00;;;;;;4892485;28;20243;-88
2021/03/17 01:40:08;;;;;;;11.80;9.90;;;3.50;1.00;;;;;;4890141;28;20220;-81
2021/03/17 01:42:31;;;;;;;12.00;10.73;;;3.50;1.00;;;;;;4879432;28;20213;-83
2021/03/17 01:44:53;;;;;;;11.47;10.27;;;3.50;1.00;;;;;;4896465;28;20219;-85
2021/03/17 01:47:15;;;;;;;12.57;11.27;;;3.60;1.00;;;;;;4887232;28;20216;-85
2021/03/17 01:49:37;;;;;;;12.40;11.10;;;3.60;1.00;;;;;;4888310;28;20242;-87
2021/03/17 01:51:59;;;;;;;11.90;10.43;;;3.50;1.00;;;;;;4873458;28;20190;-81
2021/03/17 01:54:21;;;;;;;12.03;10.83;;;3.60;1.00;;;;;;4844063;28;20218;-86
2021/03/17 01:56:44;;;;;;;12.60;11.30;;;3.50;1.00;;;;;;4830821;28;20892;-84
2021/03/17 01:59:06;;;;;;;13.47;12.07;;;3.50;1.00;;;;;;4878359;28;20638;-83
2021/03/17 02:01:28;;;;;;;13.63;11.37;;;3.40;1.00;;;;;;4891275;28;20228;-84
2021/03/17 02:03:51;;;;;;;12.43;11.03;;;3.40;1.00;;;;;;4896216;28;20278;-84
2021/03/17 02:06:13;;;;;;;12.90;11.60;;;3.40;1.00;;;;;;4878525;28;20260;-85
2021/03/17 02:08:37;;;;;;;11.97;10.77;;;3.40;1.00;;;;;;4833067;28;20253;-85
2021/03/17 02:10:59;;;;;;;12.80;11.50;;;3.40;1.00;;;;;;4866058;28;20193;-80
2021/03/17 02:13:45;;;;;;;13.00;11.33;;;3.50;1.00;;;;;;4890418;28;20205;-85
2021/03/17 02:16:14;;;;;;;13.53;11.77;;;3.50;1.00;;;;;;4843826;28;20637;-86
2021/03/17 02:18:48;;;;;;;14.97;12.30;;;3.50;1.00;;;;;;4864712;28;20210;-84
2021/03/17 02:21:42;;;;;;;16.03;13.00;;;3.50;1.00;;;;;;4845048;28;20190;-83
2021/03/17 02:24:13;;;;;;;14.73;13.10;;;3.50;1.00;;;;;;4822025;28;20233;-82
2021/03/17 02:27:11;;;;;;;15.47;13.50;;;3.50;1.00;;;;;;4860562;28;20205;-82
2021/03/17 02:29:57;;;;;;;14.97;12.97;;;3.50;1.00;;;;;;4876596;28;20733;-78
2021/03/17 02:32:44;;;;;;;14.67;13.07;;;3.50;1.00;;;;;;4844963;28;20551;-84
2021/03/17 02:35:08;;;;;;;14.17;12.50;;;3.60;1.00;;;;;;4860510;28;20244;-77
2021/03/17 02:37:33;;;;;;;14.30;12.80;;;3.60;1.00;;;;;;4860986;28;20197;-82
2021/03/17 02:40:02;;;;;;;13.80;12.30;;;3.60;1.00;;;;;;4885036;28;20266;-81
2021/03/17 02:42:29;;;;;;;13.47;12.07;;;3.70;1.00;;;;;;4861618;28;20198;-82
2021/03/17 02:44:55;;;;;;;13.63;11.73;;;3.60;1.00;;;;;;4881634;28;20689;-83
2021/03/17 02:47:19;;;;;;;14.00;12.57;;;3.60;1.00;;;;;;4878464;28;20193;-85
2021/03/17 02:49:45;;;;;;;12.50;11.03;;;3.60;1.00;;;;;;4877015;28;20298;-86
2021/03/17 02:52:10;;;;;;;14.43;12.60;;;3.60;1.00;;;;;;4860728;28;20224;-83
2021/03/17 02:54:34;;;;;;;11.73;10.53;;;3.60;1.00;;;;;;4887034;28;20212;-85
2021/03/17 02:57:00;;;;;;;12.20;10.80;;;3.60;1.00;;;;;;4877439;28;20197;-84
2021/03/17 02:59:24;;;;;;;11.20;10.03;;;3.60;1.00;;;;;;4894658;28;20204;-84
2021/03/17 03:01:51;;;;;;;12.47;10.50;;;3.60;1.00;;;;;;4891135;28;20228;-83
2021/03/17 03:04:14;;;;;;;12.33;11.13;;;3.70;1.00;;;;;;4844197;28;20194;-84
2021/03/17 03:06:39;;;;;;;11.90;10.73;;;3.60;1.00;;;;;;4859168;28;20190;-84
2021/03/17 03:09:04;;;;;;;11.10;10.00;;;3.60;1.00;;;;;;4866226;28;20197;-85
2021/03/17 03:11:27;;;;;;;12.10;10.87;;;3.60;1.00;;;;;;4883945;28;20240;-87
2021/03/17 03:13:51;;;;;;;11.90;10.73;;;3.60;1.00;;;;;;4844234;28;20241;-84
2021/03/17 03:16:15;;;;;;;11.87;10.63;;;3.60;1.00;;;;;;4838230;28;20269;-84
2021/03/17 03:18:39;;;;;;;10.87;9.73;;;3.60;1.00;;;;;;4845196;28;20647;-84
2021/03/17 03:21:02;;;;;;;11.50;10.30;;;3.60;1.00;;;;;;4878662;28;20189;-86
2021/03/17 03:23:24;;;;;;;11.13;10.03;;;3.60;1.00;;;;;;4858943;28;20201;-82
2021/03/17 03:25:49;;;;;;;10.67;9.57;;;3.60;1.00;;;;;;4877409;28;20218;-86
2021/03/17 03:28:13;;;;;;;9.93;8.97;;;3.60;1.00;;;;;;4877582;28;20205;-80
2021/03/17 03:30:36;;;;;;;10.17;9.13;;;3.60;1.00;;;;;;4877497;28;20213;-85
2021/03/17 03:32:58;;;;;;;12.20;10.07;;;3.60;1.00;;;;;;4872962;28;20211;-85
2021/03/17 03:35:22;;;;;;;10.83;9.73;;;3.60;1.00;;;;;;4875473;28;20189;-84
2021/03/17 03:37:44;;;;;;;11.50;9.93;;;3.60;1.00;;;;;;4862157;28;20198;-83
2021/03/17 03:40:09;;;;;;;11.83;10.33;;;3.60;1.00;;;;;;4858490;28;20568;-86
2021/03/17 03:42:32;;;;;;;11.07;9.97;;;3.60;1.00;;;;;;4877364;28;20231;-84
2021/03/17 03:44:54;;;;;;;12.10;10.40;;;3.70;1.00;;;;;;4876317;28;20267;-83
2021/03/17 03:47:16;;;;;;;10.83;9.73;;;3.60;1.00;;;;;;4860986;28;20202;-85
2021/03/17 03:49:38;;;;;;;12.33;11.03;;;3.60;1.00;;;;;;4868047;28;20757;-81
2021/03/17 03:52:06;;;;;;;12.70;11.33;;;3.60;1.00;;;;;;4860181;28;20578;-83
2021/03/17 03:54:37;;;;;;;10.97;9.87;;;3.60;1.00;;;;;;4886481;28;20227;-84
2021/03/17 03:57:08;;;;;;;11.83;10.63;;;3.60;1.00;;;;;;4872661;28;20178;-83
2021/03/17 03:59:36;;;;;;;11.47;10.30;;;3.60;1.00;;;;;;4881678;28;20605;-85
2021/03/17 04:02:01;;;;;;;11.10;9.93;;;3.50;1.00;;;;;;4879105;28;20224;-83
2021/03/17 04:04:29;;;;;;;12.60;10.67;;;3.60;1.00;;;;;;4873937;28;20185;-84
2021/03/17 04:06:54;;;;;;;11.60;10.43;;;3.50;1.00;;;;;;4861590;28;20228;-84
2021/03/17 04:09:21;;;;;;;11.60;10.40;;;3.60;1.00;;;;;;4864758;28;20252;-81
2021/03/17 04:11:45;;;;;;;12.50;11.07;;;3.40;1.00;;;;;;4892171;28;20556;-84
2021/03/17 04:14:09;;;;;;;12.73;11.07;;;3.50;1.00;;;;;;4868896;28;20212;-85
2021/03/17 04:16:35;;;;;;;11.50;10.30;;;3.50;1.00;;;;;;4890946;28;20250;-86
2021/03/17 04:19:01;;;;;;;12.13;10.83;;;3.50;1.00;;;;;;4880583;28;20771;-86
2021/03/17 04:21:26;;;;;;;12.60;10.40;;;3.50;1.00;;;;;;4867504;28;20235;-87
2021/03/17 04:23:51;;;;;;;12.17;10.90;;;3.50;1.00;;;;;;4881069;28;20197;-85
2021/03/17 04:26:14;;;;;;;11.80;10.60;;;3.50;1.00;;;;;;4880338;28;20674;-84
2021/03/17 04:28:38;;;;;;;13.17;11.10;;;3.40;1.00;;;;;;4879951;28;20244;-83
2021/03/17 04:31:01;;;;;;;12.07;10.80;;;3.40;1.00;;;;;;4881194;28;20205;-85
2021/03/17 04:33:25;;;;;;;13.03;11.63;;;3.40;1.00;;;;;;4872962;28;20230;-85
2021/03/17 04:35:48;;;;;;;12.30;11.10;;;3.40;1.00;;;;;;4883583;28;20662;-80
2021/03/17 04:38:13;;;;;;;12.60;11.30;;;3.40;1.00;;;;;;4862139;28;20248;-82
2021/03/17 04:40:36;;;;;;;12.73;11.43;;;3.40;1.00;;;;;;4874651;28;20217;-85
2021/03/17 04:42:59;;;;;;;13.87;12.00;;;3.60;1.00;;;;;;4897088;28;20294;-83
2021/03/17 04:45:21;;;;;;;12.30;11.03;;;3.40;1.00;;;;;;4873688;28;20251;-84
2021/03/17 04:47:45;;;;;;;12.83;11.47;;;3.40;1.00;;;;;;4841254;28;20256;-86
2021/03/17 04:50:13;;;;;;;13.33;11.73;;;3.40;1.00;;;;;;4897475;28;20220;-82
2021/03/17 04:52:36;;;;;;;13.07;11.67;;;3.40;1.00;;;;;;4880954;28;20271;-83
2021/03/17 04:54:59;;;;;;;12.60;11.30;;;3.50;1.00;;;;;;4861345;28;20207;-82
2021/03/17 04:57:24;;;;;;;12.30;10.87;;;3.50;1.00;;;;;;4896289;28;20646;-84
2021/03/17 04:59:47;;;;;;;13.63;12.23;;;3.40;1.00;;;;;;4898838;28;20716;-83
2021/03/17 05:02:10;;;;;;;12.63;11.30;;;3.50;1.00;;;;;;4889337;28;20604;-82
2021/03/17 05:04:33;;;;;;;12.77;11.40;;;3.40;1.00;;;;;;4879806;28;20193;-80
2021/03/17 05:06:57;;;;;;;14.53;12.00;;;3.50;1.00;;;;;;4895487;28;20197;-85
2021/03/17 05:09:20;;;;;;;12.73;11.43;;;3.50;1.00;;;;;;4875334;28;20640;-85
2021/03/17 05:11:43;;;;;;;12.20;11.00;;;3.40;1.00;;;;;;4863071;28;20256;-82
2021/03/17 05:14:06;;;;;;;11.77;10.53;;;3.40;1.00;;;;;;4879307;28;20210;-85
2021/03/17 05:16:29;;;;;;;12.43;11.13;;;3.40;1.00;;;;;;4879199;28;20201;-85
2021/03/17 05:18:51;;;;;;;18.87;16.90;;;3.50;1.00;;;;;;4877088;28;20209;-83
2021/03/17 05:21:15;;;;;;;14.60;12.90;;;3.50;1.00;;;;;;4863990;28;20202;-84
2021/03/17 05:23:40;;;;;;;12.10;10.90;;;3.50;1.00;;;;;;4878909;28;20255;-84
2021/03/17 05:26:02;;;;;;;17.07;14.63;;;3.50;1.00;;;;;;4897441;28;20215;-81
2021/03/17 05:28:26;;;;;;;11.37;10.27;;;3.50;1.00;;;;;;4863177;28;20198;-83
2021/03/17 05:30:50;;;;;;;19.03;16.90;;;3.50;1.00;;;;;;4896581;28;20197;-79
2021/03/17 05:33:13;;;;;;;20.63;17.80;;;3.50;1.00;;;;;;4895987;28;20278;-81
2021/03/17 05:35:36;;;;;;;14.23;12.73;;;3.50;1.00;;;;;;4878491;28;20255;-79
2021/03/17 05:37:58;;;;;;;13.03;11.20;;;3.60;1.00;;;;;;4896700;28;20619;-83
2021/03/17 05:40:22;;;;;;;14.50;12.87;;;3.60;1.00;;;;;;4872837;28;20221;-85
2021/03/17 05:42:45;;;;;;;12.00;10.70;;;3.60;1.00;;;;;;4893074;28;20219;-84
2021/03/17 05:45:11;;;;;;;11.00;9.90;;;3.50;99.90;;;;;;4844069;28;20250;-81
2021/03/17 05:47:33;;;;;;;30.30;22.20;;;3.60;99.90;;;;;;4843682;28;20783;-81
2021/03/17 05:49:56;;;;;;;16.27;12.97;;;3.70;99.90;;;;;;4843791;28;20214;-85
2021/03/17 05:52:19;;;;;;;16.67;12.03;;;3.70;99.90;;;;;;4843525;28;20210;-79
2021/03/17 05:54:42;;;;;;;22.03;14.17;;;3.70;99.90;;;;;;4893473;28;20220;-81
2021/03/17 05:57:07;;;;;;;12.67;10.73;;;3.70;99.90;;;;;;4878143;28;20205;-85
2021/03/17 05:59:30;;;;;;;14.07;11.57;;;3.70;99.90;;;;;;4883010;28;20188;-83
2021/03/17 06:01:53;;;;;;;20.30;15.60;;;3.70;99.90;;;;;;4839615;28;20699;-84
2021/03/17 06:04:17;;;;;;;11.53;10.33;;;3.70;1.00;;;;;;4858002;28;20186;-85
2021/03/17 06:06:42;;;;;;;20.60;13.57;;;3.70;1.00;;;;;;4872613;28;20240;-83
2021/03/17 06:09:07;;;;;;;12.67;10.17;;;3.70;99.90;;;;;;4893913;28;20285;-82
2021/03/17 06:11:31;;;;;;;19.87;13.10;;;3.70;99.90;;;;;;4843421;28;20262;-82
2021/03/17 06:13:57;;;;;;;17.50;13.00;;;3.70;1.00;;;;;;4851001;28;20691;-82
2021/03/17 06:16:22;;;;;;;14.97;11.97;;;3.70;1.00;;;;;;4877897;28;20201;-82
2021/03/17 06:18:50;;;;;;;17.90;13.27;;;3.70;1.00;;;;;;4866714;28;20263;-83
2021/03/17 06:21:17;;;;;;;17.10;13.27;;;3.80;99.00;;;;;;4878357;28;20207;-85
2021/03/17 06:23:40;;;;;;;17.80;13.63;;;3.80;99.90;;;;;;4896454;28;20192;-82
2021/03/17 06:26:02;;;;;;;14.97;12.10;;;3.90;99.90;;;;;;4895074;28;20181;-83
2021/03/17 06:28:24;;;;;;;35.23;23.77;;;3.90;1.00;;;;;;4878187;28;20413;-84
2021/03/17 06:30:47;;;;;;;28.17;18.00;;;4.10;44.30;;;;;;4896693;28;20207;-80
2021/03/17 06:33:10;;;;;;;18.47;14.07;;;4.20;1.00;;;;;;4894902;28;20254;-82
2021/03/17 06:35:32;;;;;;;15.03;12.43;;;4.30;1.00;;;;;;4877483;28;20881;-84
2021/03/17 06:37:55;;;;;;;16.57;13.10;;;4.30;1.00;;;;;;4897152;28;20181;-83
2021/03/17 06:40:25;;;;;;;16.03;12.67;;;4.40;99.90;;;;;;4886862;28;20251;-82
2021/03/17 06:42:48;;;;;;;14.87;12.33;;;4.50;1.00;;;;;;4883655;28;20181;-77
2021/03/17 06:45:11;;;;;;;12.43;10.90;;;4.60;17.70;;;;;;4884864;28;20547;-83
2021/03/17 06:47:34;;;;;;;12.23;10.83;;;4.60;89.10;;;;;;4858571;28;20757;-82
2021/03/17 06:49:56;;;;;;;11.80;10.57;;;4.70;99.90;;;;;;4858875;28;20271;-85
2021/03/17 06:52:36;;;;;;;13.03;11.63;;;4.80;99.90;;;;;;4877744;28;20219;-81
2021/03/17 06:55:09;;;;;;;11.90;10.70;;;4.90;99.90;;;;;;4859625;28;20647;-85
2021/03/17 06:57:31;;;;;;;11.23;10.00;;;5.10;99.90;;;;;;4842595;28;20191;-84
2021/03/17 06:59:53;;;;;;;9.93;8.93;;;5.20;1.00;;;;;;4859545;28;20939;-85
2021/03/17 07:02:19;;;;;;;11.43;8.93;;;5.40;1.00;;;;;;4859454;28;20790;-86
2021/03/17 07:04:53;;;;;;;9.80;8.83;;;5.50;1.00;;;;;;4842148;28;20598;-84
2021/03/17 07:07:18;;;;;;;9.93;8.90;;;5.70;88.50;;;;;;4842941;28;20257;-84
2021/03/17 07:09:40;;;;;;;11.13;9.97;;;5.90;1.00;;;;;;4837073;28;20194;-77
2021/03/17 07:12:07;;;;;;;8.70;7.90;;;6.10;1.00;;;;;;4857175;28;20193;-76
2021/03/17 07:14:29;;;;;;;8.77;7.97;;;6.30;99.90;;;;;;4888541;28;20212;-83
2021/03/17 07:16:52;;;;;;;9.57;8.60;;;6.50;1.00;;;;;;4860654;28;20194;-74
2021/03/17 07:19:34;;;;;;;8.70;7.90;;;6.70;1.00;;;;;;4877183;28;20205;-84
2021/03/17 07:22:06;;;;;;;8.70;7.80;;;6.80;1.00;;;;;;4877545;28;20182;-82
2021/03/17 07:24:28;;;;;;;9.53;8.53;;;6.80;1.00;;;;;;4877853;28;20283;-85
2021/03/17 07:26:50;;;;;;;8.53;7.73;;;6.70;1.00;;;;;;4885698;28;20537;-85
2021/03/17 07:29:13;;;;;;;8.87;8.00;;;6.70;1.00;;;;;;4871374;28;20201;-85
2021/03/17 07:31:37;;;;;;;9.43;8.53;;;6.70;1.00;;;;;;4887285;28;20561;-83
2021/03/17 07:34:12;;;;;;;8.93;8.13;;;6.70;1.00;;;;;;4882918;28;20192;-83
2021/03/17 07:36:41;;;;;;;9.60;8.70;;;6.80;1.00;;;;;;4875591;28;20188;-78
2021/03/17 07:39:08;;;;;;;9.23;8.33;;;6.80;99.90;;;;;;4867817;28;20201;-74
2021/03/17 07:41:31;;;;;;;9.30;8.47;;;6.80;1.00;;;;;;4891332;28;20245;-82
2021/03/17 07:43:54;;;;;;;8.93;8.10;;;6.90;99.90;;;;;;4891201;28;20540;-83
2021/03/17 07:46:16;;;;;;;8.53;7.73;;;7.00;99.90;;;;;;4874385;28;20198;-82
2021/03/17 07:48:40;;;;;;;9.57;8.43;;;7.00;99.90;;;;;;4889319;28;20764;-76
2021/03/17 07:51:02;;;;;;;9.03;8.20;;;7.10;99.90;;;;;;4841540;28;20271;-85
2021/03/17 07:53:26;;;;;;;8.73;7.90;;;7.20;99.90;;;;;;4876578;28;20223;-80
2021/03/17 07:55:50;;;;;;;8.33;7.60;;;7.40;99.90;;;;;;4874342;28;20279;-80
2021/03/17 07:58:14;;;;;;;8.50;7.70;;;7.30;99.90;;;;;;4859205;28;20201;-84
2021/03/17 08:00:38;;;;;;;8.40;7.60;;;7.40;99.90;;;;;;4892914;28;20238;-80
2021/03/17 08:03:00;;;;;;;8.73;7.83;;;7.40;99.90;;;;;;4882270;28;20212;-83
2021/03/17 08:05:22;;;;;;;8.83;8.00;;;7.40;99.90;;;;;;4856087;28;20185;-83
2021/03/17 08:07:45;;;;;;;7.77;7.00;;;7.40;99.90;;;;;;4860247;28;20667;-82
2021/03/17 08:10:09;;;;;;;8.93;8.13;;;7.40;99.90;;;;;;4860755;28;20201;-79
2021/03/17 08:12:34;;;;;;;8.00;6.97;;;7.40;99.90;;;;;;4876401;28;20247;-84
2021/03/17 08:14:57;;;;;;;8.33;7.60;;;7.40;99.90;;;;;;4888677;28;20209;-81
2021/03/17 08:17:33;;;;;;;7.60;6.90;;;7.30;99.90;;;;;;4857930;28;20202;-81
2021/03/17 08:20:18;;;;;;;8.83;7.93;;;7.20;99.90;;;;;;4870507;28;20201;-82
2021/03/17 08:22:41;;;;;;;9.47;8.50;;;7.20;99.90;;;;;;4842282;28;20775;-80
2021/03/17 08:25:03;;;;;;;8.57;7.60;;;7.20;99.90;;;;;;4883526;28;20623;-74
2021/03/17 08:27:26;;;;;;;7.10;6.43;;;7.10;99.90;;;;;;4875172;28;20295;-80
2021/03/17 08:30:05;;;;;;;7.20;6.60;;;7.00;99.90;;;;;;4876691;28;20206;-76
2021/03/17 08:33:07;;;;;;;7.47;6.80;;;6.90;99.90;;;;;;4887579;28;20196;-85
2021/03/17 08:36:08;;;;;;;6.93;6.30;;;6.90;99.90;;;;;;4837796;28;20242;-82
2021/03/17 08:38:44;;;;;;;7.20;6.50;;;7.10;99.90;;;;;;4843892;28;20834;-79
2021/03/17 08:41:06;;;;;;;6.53;5.90;;;7.20;99.90;;;;;;4852700;28;20294;-76
2021/03/17 08:43:46;;;;;;;5.90;5.40;;;7.30;99.90;;;;;;4891944;28;20604;-84
2021/03/17 08:46:09;;;;;;;6.03;5.43;;;7.70;90.60;;;;;;4852360;28;20195;-78
2021/03/17 08:48:56;;;;;;;6.03;5.47;;;8.00;1.00;;;;;;4842536;28;20206;-83
2021/03/17 08:51:19;;;;;;;6.73;6.03;;;8.10;1.00;;;;;;4849472;28;20558;-80
2021/03/17 08:53:42;;;;;;;6.17;5.13;;;8.20;1.00;;;;;;4898837;28;20184;-82
2021/03/17 08:56:04;;;;;;;5.93;5.20;;;8.20;1.00;;;;;;4879243;28;20211;-84
2021/03/17 08:58:26;;;;;;;5.20;4.80;;;8.30;1.00;;;;;;4897533;28;20632;-81
2021/03/17 09:00:53;;;;;;;4.90;4.50;;;8.40;1.00;;;;;;4860014;28;20197;-77
2021/03/17 09:03:52;;;;;;;5.47;5.00;;;8.60;1.00;;;;;;4844234;28;20218;-85
2021/03/17 09:06:17;;;;;;;5.97;4.67;;;8.80;1.00;;;;;;4866391;28;20355;-86
2021/03/17 09:09:01;;;;;;;5.23;4.47;;;9.00;1.00;;;;;;4895329;28;20539;-85
2021/03/17 09:11:59;;;;;;;5.27;4.37;;;9.50;1.00;;;;;;4878620;28;20288;-81
2021/03/17 09:14:34;;;;;;;5.47;4.97;;;9.90;1.00;;;;;;4898518;28;20177;-88
2021/03/17 09:17:27;;;;;;;6.00;5.47;;;10.10;1.00;;;;;;4897691;28;20541;-81
2021/03/17 09:20:22;;;;;;;5.07;4.67;;;10.30;1.00;;;;;;4877925;28;20643;-83
2021/03/17 09:23:06;;;;;;;4.23;3.93;;;10.90;1.00;;;;;;4862307;28;20217;-87
2021/03/17 09:25:32;;;;;;;3.90;3.60;;;12.20;1.00;;;;;;4862165;28;20260;-79
2021/03/17 09:28:01;;;;;;;3.03;2.83;;;12.70;1.00;;;;;;4862784;28;20221;-85
2021/03/17 09:30:26;;;;;;;2.60;2.40;;;13.30;1.00;;;;;;4878861;28;20197;-84
2021/03/17 09:32:49;;;;;;;2.13;2.03;;;13.90;1.00;;;;;;4892872;28;20716;-80
2021/03/17 09:35:12;;;;;;;2.20;2.10;;;14.40;1.00;;;;;;4859287;28;20272;-82
2021/03/17 09:37:34;;;;;;;2.00;1.90;;;14.30;1.00;;;;;;4881547;28;20189;-83
2021/03/17 09:39:57;;;;;;;1.90;1.80;;;13.80;1.00;;;;;;4887537;28;20923;-83
2021/03/17 09:42:20;;;;;;;2.80;2.60;;;13.00;1.00;;;;;;4896452;28;20184;-80
2021/03/17 09:44:42;;;;;;;2.57;2.43;;;12.40;1.00;;;;;;4893409;28;20234;-90
2021/03/17 09:47:04;;;;;;;2.80;2.60;;;11.90;1.00;;;;;;4883834;28;20185;-84
2021/03/17 09:49:28;;;;;;;2.20;2.10;;;11.50;1.00;;;;;;4859518;28;20267;-82
2021/03/17 09:51:53;;;;;;;2.57;2.40;;;11.10;1.00;;;;;;4885048;28;20587;-84
2021/03/17 09:54:18;;;;;;;2.87;2.67;;;10.90;1.00;;;;;;4862457;28;20403;-84
2021/03/17 09:56:45;;;;;;;2.40;2.20;;;11.40;1.00;;;;;;4876260;28;20776;-81
2021/03/17 09:59:25;;;;;;;2.17;2.00;;;12.50;1.00;;;;;;4897024;28;20243;-81
2021/03/17 10:01:56;;;;;;;1.73;1.63;;;13.40;1.00;;;;;;4873763;28;20282;-79
2021/03/17 10:04:19;;;;;;;1.47;1.37;;;15.10;1.00;;;;;;4896355;28;20184;-76
2021/03/17 10:06:42;;;;;;;1.13;1.07;;;16.90;1.00;;;;;;4893888;28;20238;-82
2021/03/17 10:09:04;;;;;;;0.70;0.70;;;17.60;99.90;;;;;;4859403;28;20688;-82
2021/03/17 10:11:27;;;;;;;0.70;0.70;;;17.40;99.90;;;;;;4825889;28;20226;-79
2021/03/17 10:13:49;;;;;;;0.67;0.67;;;16.70;99.90;;;;;;4857473;28;20201;-77
2021/03/17 10:16:14;;;;;;;0.50;0.50;;;16.10;99.90;;;;;;4856918;28;20217;-83
2021/03/17 10:18:36;;;;;;;0.50;0.50;;;17.70;99.90;;;;;;4865008;28;20656;-84
2021/03/17 10:20:58;;;;;;;0.30;0.30;;;20.40;99.90;;;;;;4883002;28;20215;-84
2021/03/17 10:23:20;;;;;;;0.30;0.30;;;23.20;99.90;;;;;;4862268;28;20195;-84
2021/03/17 10:25:42;;;;;;;0.30;0.30;;;24.00;99.90;;;;;;4874876;28;20238;-87
2021/03/17 10:28:08;;;;;;;0.20;0.20;;;23.60;99.90;;;;;;4843687;28;20295;-83
2021/03/17 10:30:32;;;;;;;0.20;0.20;;;22.50;99.90;;;;;;4881331;28;20194;-81
2021/03/17 10:33:00;;;;;;;0.20;0.20;;;21.30;99.90;;;;;;4898129;28;20191;-82
2021/03/17 10:35:23;;;;;;;0.30;0.30;;;21.90;99.90;;;;;;4897891;28;20216;-88
2021/03/17 10:37:46;;;;;;;0.20;0.20;;;23.90;99.90;;;;;;4881791;28;20190;-89
2021/03/17 10:40:12;;;;;;;0.30;0.30;;;26.40;99.90;;;;;;4860201;28;20218;-84
2021/03/17 10:42:35;;;;;;;0.30;0.30;;;28.80;99.90;;;;;;4859766;28;20197;-86
2021/03/17 10:45:09;;;;;;;0.20;0.20;;;30.80;99.90;;;;;;4865794;28;20242;-82
2021/03/17 10:47:31;;;;;;;0.20;0.20;;;32.10;99.90;;;;;;4881470;28;20244;-82
2021/03/17 10:49:54;;;;;;;0.20;0.20;;;34.00;99.90;;;;;;4862915;28;20625;-85
2021/03/17 10:52:16;;;;;;;0.20;0.20;;;35.10;99.90;;;;;;4882782;28;20728;-75
2021/03/17 10:54:40;;;;;;;0.20;0.20;;;35.20;99.90;;;;;;4875069;28;20209;-84
2021/03/17 10:57:03;;;;;;;0.20;0.20;;;34.60;99.90;;;;;;4885619;28;20189;-75
2021/03/17 10:59:30;;;;;;;0.20;0.20;;;35.10;99.90;;;;;;4877579;28;20189;-82
2021/03/17 11:02:20;;;;;;;0.20;0.20;;;35.70;99.90;;;;;;4873875;28;20274;-89
2021/03/17 11:05:07;;;;;;;0.20;0.20;;;34.40;99.90;;;;;;4896009;28;20180;-85
2021/03/17 11:07:29;;;;;;;0.20;0.20;;;31.60;99.90;;;;;;4890668;28;20188;-79
2021/03/17 11:09:51;;;;;;;0.20;0.20;;;28.70;99.90;;;;;;4883274;28;20191;-88
2021/03/17 11:12:14;;;;;;;0.20;0.20;;;25.80;99.90;;;;;;4842861;28;20187;-89
2021/03/17 11:14:36;;;;;;;0.20;0.20;;;23.10;99.90;;;;;;4877033;28;20235;-85
2021/03/17 11:17:03;;;;;;;0.20;0.20;;;20.80;99.90;;;;;;4876805;28;20236;-83
2021/03/17 11:19:26;;;;;;;0.30;0.30;;;19.20;99.90;;;;;;4894421;28;20185;-84
2021/03/17 11:21:50;;;;;;;0.20;0.20;;;20.40;99.90;;;;;;4877617;28;20689;-91
2021/03/17 11:24:17;;;;;;;0.20;0.20;;;23.30;99.90;;;;;;4881348;28;20191;-85
2021/03/17 11:26:40;;;;;;;0.20;0.20;;;26.10;99.90;;;;;;4858419;28;20766;-88
2021/03/17 11:29:12;;;;;;;0.20;0.20;;;27.30;99.90;;;;;;4891124;28;20593;-85
2021/03/17 11:31:37;;;;;;;0.30;0.30;;;26.20;99.90;;;;;;4876609;28;20637;-86
2021/03/17 11:34:00;;;;;;;0.20;0.20;;;24.50;99.90;;;;;;4843684;28;20627;-87
2021/03/17 11:36:22;;;;;;;0.20;0.20;;;22.40;99.90;;;;;;4841463;28;20205;-85
2021/03/17 11:38:45;;;;;;;0.20;0.20;;;20.70;99.90;;;;;;4842350;28;20243;-88
2021/03/17 11:41:07;;;;;;;0.30;0.30;;;21.40;99.90;;;;;;4864828;28;20223;-87
2021/03/17 11:43:31;;;;;;;0.30;0.30;;;23.70;99.90;;;;;;4863781;28;20625;-85
2021/03/17 11:45:55;;;;;;;0.20;0.20;;;24.70;99.90;;;;;;4876111;28;20271;-86
2021/03/17 11:48:17;;;;;;;0.20;0.20;;;24.30;99.90;;;;;;4853675;28;20202;-88
2021/03/17 11:50:42;;;;;;;0.20;0.20;;;23.00;99.90;;;;;;4857371;28;20633;-84
2021/03/17 11:53:04;;;;;;;0.20;0.20;;;21.80;99.90;;;;;;4879121;28;20203;-85
2021/03/17 11:55:28;;;;;;;0.20;0.20;;;20.60;99.90;;;;;;4875068;28;20241;-80
2021/03/17 11:57:51;;;;;;;0.20;0.20;;;19.30;99.90;;;;;;4880438;28;20190;-83
2021/03/17 12:00:14;;;;;;;0.20;0.20;;;18.90;99.90;;;;;;4852221;28;20241;-83
2021/03/17 12:02:36;;;;;;;0.20;0.20;;;20.60;99.90;;;;;;4874618;28;20224;-85
2021/03/17 12:04:58;;;;;;;0.30;0.30;;;23.40;99.90;;;;;;4876276;28;20197;-87
2021/03/17 12:07:20;;;;;;;0.20;0.20;;;26.00;99.90;;;;;;4860175;28;20195;-80
2021/03/17 12:09:42;;;;;;;0.20;0.20;;;27.60;99.90;;;;;;4894434;28;20194;-81
2021/03/17 12:12:07;;;;;;;0.30;0.30;;;27.50;99.90;;;;;;4858937;28;20242;-85
2021/03/17 12:14:29;;;;;;;0.27;0.27;;;26.30;99.90;;;;;;4840252;28;20738;-84
2021/03/17 12:16:51;;;;;;;0.20;0.20;;;24.50;99.90;;;;;;4848554;28;20240;-84
2021/03/17 12:19:13;;;;;;;0.20;0.20;;;22.60;99.90;;;;;;4875005;28;20203;-85
2021/03/17 12:21:35;;;;;;;0.30;0.30;;;21.30;99.90;;;;;;4865094;28;20200;-83
2021/03/17 12:23:57;;;;;;;0.20;0.20;;;22.40;99.90;;;;;;4883898;28;20180;-79
2021/03/17 12:26:20;;;;;;;0.20;0.20;;;23.00;99.90;;;;;;4846437;28;20221;-82
2021/03/17 12:28:43;;;;;;;0.27;0.27;;;22.50;99.90;;;;;;4862760;28;20202;-84
2021/03/17 12:31:05;;;;;;;0.20;0.20;;;21.20;99.90;;;;;;4881110;28;20280;-86
2021/03/17 12:33:27;;;;;;;0.20;0.20;;;21.30;99.90;;;;;;4881353;28;20682;-85
2021/03/17 12:35:50;;;;;;;0.30;0.30;;;23.50;99.90;;;;;;4862372;28;20258;-85
2021/03/17 12:38:12;;;;;;;0.20;0.20;;;24.80;99.90;;;;;;4846735;28;20195;-82
2021/03/17 12:40:34;;;;;;;0.30;0.30;;;24.40;99.90;;;;;;4895165;28;20299;-89
2021/03/17 12:42:57;;;;;;;0.30;0.30;;;23.50;99.90;;;;;;4861970;28;20204;-89
2021/03/17 12:45:22;;;;;;;0.30;0.30;;;22.80;99.90;;;;;;4898178;28;20267;-80
2021/03/17 12:47:44;;;;;;;0.30;0.30;;;23.60;99.90;;;;;;4878745;28;20188;-87